sensor_id;sensor_type;location;lat;lon;timestamp;P1;durP1;ratioP1;P2;durP2;ratioP2
61025;SDS011;46911;32.650;-16.902;2023-09-08T00:01:47;21.40;;;5.43;;
61025;SDS011;46911;32.650;-16.902;2023-09-08T00:03:48;16.50;;;4.00;;
61025;SDS011;46911;32.650;-16.902;2023-09-08T00:05:49;23.45;;;4.35;;
61025;SDS011;46911;32.650;-16.902;2023-09-08T00:07:50;21.35;;;4.95;;
61025;SDS011;46911;32.650;-16.902;2023-09-08T00:09:51;21.38;;;5.53;;
61025;SDS011;46911;32.650;-16.902;2023-09-08T00:11:54;14.05;;;4.13;;
61025;SDS011;46911;32.650;-16.902;2023-09-08T00:13:58;22.77;;;5.55;;
61025;SDS011;46911;32.650;-16.902;2023-09-08T00:16:02;7.90;;;3.42;;
61025;SDS011;46911;32.650;-16.902;2023-09-08T00:18:03;19.38;;;4.55;;
61025;SDS011;46911;32.650;-16.902;2023-09-08T00:20:08;17.48;;;4.20;;
61025;SDS011;46911;32.650;-16.902;2023-09-08T00:22:11;18.70;;;4.78;;
61025;SDS011;46911;32.650;-16.902;2023-09-08T00:24:15;13.65;;;4.25;;
61025;SDS011;46911;32.650;-16.902;2023-09-08T00:26:16;13.82;;;4.38;;
61025;SDS011;46911;32.650;-16.902;2023-09-08T00:28:20;29.05;;;4.85;;
61025;SDS011;46911;32.650;-16.902;2023-09-08T00:30:21;12.75;;;3.70;;
61025;SDS011;46911;32.650;-16.902;2023-09-08T00:32:22;18.88;;;2.78;;
61025;SDS011;46911;32.650;-16.902;2023-09-08T00:34:26;15.75;;;3.42;;
61025;SDS011;46911;32.650;-16.902;2023-09-08T00:36:27;11.40;;;3.55;;
61025;SDS011;46911;32.650;-16.902;2023-09-08T00:38:33;13.50;;;3.10;;
61025;SDS011;46911;32.650;-16.902;2023-09-08T00:40:34;17.20;;;2.60;;
61025;SDS011;46911;32.650;-16.902;2023-09-08T00:42:40;11.70;;;2.63;;
61025;SDS011;46911;32.650;-16.902;2023-09-08T00:44:43;17.77;;;2.33;;
61025;SDS011;46911;32.650;-16.902;2023-09-08T00:46:44;11.90;;;2.97;;
61025;SDS011;46911;32.650;-16.902;2023-09-08T00:48:48;13.40;;;3.53;;
61025;SDS011;46911;32.650;-16.902;2023-09-08T00:50:51;17.60;;;3.80;;
61025;SDS011;46911;32.650;-16.902;2023-09-08T00:52:55;13.40;;;3.97;;
61025;SDS011;46911;32.650;-16.902;2023-09-08T00:54:59;13.07;;;3.92;;
61025;SDS011;46911;32.650;-16.902;2023-09-08T00:57:02;10.50;;;3.92;;
61025;SDS011;46911;32.650;-16.902;2023-09-08T00:59:06;15.77;;;3.70;;
61025;SDS011;46911;32.650;-16.902;2023-09-08T01:01:10;22.30;;;3.35;;
61025;SDS011;46911;32.650;-16.902;2023-09-08T01:03:11;10.40;;;3.60;;
61025;SDS011;46911;32.650;-16.902;2023-09-08T01:05:12;13.27;;;3.70;;
61025;SDS011;46911;32.650;-16.902;2023-09-08T01:07:14;18.70;;;3.72;;
61025;SDS011;46911;32.650;-16.902;2023-09-08T01:09:18;15.50;;;3.30;;
61025;SDS011;46911;32.650;-16.902;2023-09-08T01:11:19;17.65;;;4.68;;
61025;SDS011;46911;32.650;-16.902;2023-09-08T01:13:23;14.00;;;3.58;;
61025;SDS011;46911;32.650;-16.902;2023-09-08T01:15:24;16.45;;;3.15;;
61025;SDS011;46911;32.650;-16.902;2023-09-08T01:17:25;14.95;;;3.63;;
61025;SDS011;46911;32.650;-16.902;2023-09-08T01:19:29;15.50;;;4.10;;
61025;SDS011;46911;32.650;-16.902;2023-09-08T01:26:17;13.05;;;3.47;;
61025;SDS011;46911;32.650;-16.902;2023-09-08T01:28:32;16.33;;;3.35;;
61025;SDS011;46911;32.650;-16.902;2023-09-08T01:30:36;14.40;;;3.15;;
61025;SDS011;46911;32.650;-16.902;2023-09-08T01:32:40;14.63;;;3.42;;
61025;SDS011;46911;32.650;-16.902;2023-09-08T01:34:41;19.88;;;3.33;;
61025;SDS011;46911;32.650;-16.902;2023-09-08T01:36:47;13.70;;;3.45;;
61025;SDS011;46911;32.650;-16.902;2023-09-08T01:38:48;12.88;;;3.17;;
61025;SDS011;46911;32.650;-16.902;2023-09-08T01:40:51;12.07;;;3.13;;
61025;SDS011;46911;32.650;-16.902;2023-09-08T01:42:55;12.70;;;3.60;;
61025;SDS011;46911;32.650;-16.902;2023-09-08T01:44:56;14.93;;;2.88;;
61025;SDS011;46911;32.650;-16.902;2023-09-08T01:47:00;14.38;;;2.40;;
61025;SDS011;46911;32.650;-16.902;2023-09-08T01:49:07;14.60;;;2.78;;
61025;SDS011;46911;32.650;-16.902;2023-09-08T01:51:10;12.60;;;2.58;;
61025;SDS011;46911;32.650;-16.902;2023-09-08T01:53:13;11.20;;;2.28;;
61025;SDS011;46911;32.650;-16.902;2023-09-08T01:55:14;6.47;;;2.00;;
61025;SDS011;46911;32.650;-16.902;2023-09-08T01:57:18;11.65;;;2.50;;
61025;SDS011;46911;32.650;-16.902;2023-09-08T01:59:24;19.88;;;2.50;;
61025;SDS011;46911;32.650;-16.902;2023-09-08T02:01:25;11.88;;;2.70;;
61025;SDS011;46911;32.650;-16.902;2023-09-08T02:03:26;18.38;;;3.13;;
61025;SDS011;46911;32.650;-16.902;2023-09-08T02:05:29;13.60;;;2.90;;
61025;SDS011;46911;32.650;-16.902;2023-09-08T02:07:36;8.57;;;2.50;;
61025;SDS011;46911;32.650;-16.902;2023-09-08T02:09:40;13.25;;;2.85;;
61025;SDS011;46911;32.650;-16.902;2023-09-08T02:11:44;10.95;;;2.53;;
61025;SDS011;46911;32.650;-16.902;2023-09-08T02:13:45;8.35;;;2.10;;
61025;SDS011;46911;32.650;-16.902;2023-09-08T02:15:46;10.15;;;2.10;;
61025;SDS011;46911;32.650;-16.902;2023-09-08T02:17:52;8.73;;;2.00;;
61025;SDS011;46911;32.650;-16.902;2023-09-08T02:19:56;13.63;;;2.15;;
61025;SDS011;46911;32.650;-16.902;2023-09-08T02:22:02;10.65;;;2.38;;
61025;SDS011;46911;32.650;-16.902;2023-09-08T02:24:05;9.27;;;2.60;;
61025;SDS011;46911;32.650;-16.902;2023-09-08T02:26:06;19.73;;;3.67;;
61025;SDS011;46911;32.650;-16.902;2023-09-08T02:28:08;18.67;;;2.78;;
61025;SDS011;46911;32.650;-16.902;2023-09-08T02:30:09;14.23;;;3.70;;
61025;SDS011;46911;32.650;-16.902;2023-09-08T02:32:11;9.82;;;3.03;;
61025;SDS011;46911;32.650;-16.902;2023-09-08T02:34:15;13.00;;;3.42;;
61025;SDS011;46911;32.650;-16.902;2023-09-08T02:36:18;9.88;;;2.90;;
61025;SDS011;46911;32.650;-16.902;2023-09-08T02:38:26;14.75;;;3.28;;
61025;SDS011;46911;32.650;-16.902;2023-09-08T02:40:27;14.55;;;3.10;;
61025;SDS011;46911;32.650;-16.902;2023-09-08T02:42:30;19.70;;;2.97;;
61025;SDS011;46911;32.650;-16.902;2023-09-08T02:44:33;8.27;;;3.03;;
61025;SDS011;46911;32.650;-16.902;2023-09-08T02:46:39;9.75;;;2.58;;
61025;SDS011;46911;32.650;-16.902;2023-09-08T02:48:40;16.42;;;3.13;;
61025;SDS011;46911;32.650;-16.902;2023-09-08T02:50:43;9.10;;;2.08;;
61025;SDS011;46911;32.650;-16.902;2023-09-08T02:52:47;10.57;;;2.58;;
61025;SDS011;46911;32.650;-16.902;2023-09-08T02:54:48;10.32;;;1.77;;
61025;SDS011;46911;32.650;-16.902;2023-09-08T02:56:49;15.18;;;3.25;;
61025;SDS011;46911;32.650;-16.902;2023-09-08T02:58:52;17.85;;;2.00;;
61025;SDS011;46911;32.650;-16.902;2023-09-08T03:00:56;10.50;;;1.40;;
61025;SDS011;46911;32.650;-16.902;2023-09-08T03:02:57;15.25;;;1.63;;
61025;SDS011;46911;32.650;-16.902;2023-09-08T03:04:58;29.58;;;1.73;;
61025;SDS011;46911;32.650;-16.902;2023-09-08T03:07:00;10.25;;;1.55;;
61025;SDS011;46911;32.650;-16.902;2023-09-08T03:09:05;10.50;;;1.38;;
61025;SDS011;46911;32.650;-16.902;2023-09-08T03:11:08;14.25;;;1.73;;
61025;SDS011;46911;32.650;-16.902;2023-09-08T03:13:15;8.63;;;1.08;;
61025;SDS011;46911;32.650;-16.902;2023-09-08T03:15:20;15.38;;;2.53;;
61025;SDS011;46911;32.650;-16.902;2023-09-08T03:17:21;4.43;;;1.00;;
61025;SDS011;46911;32.650;-16.902;2023-09-08T03:19:24;4.32;;;1.10;;
61025;SDS011;46911;32.650;-16.902;2023-09-08T03:21:28;22.15;;;1.60;;
61025;SDS011;46911;32.650;-16.902;2023-09-08T03:23:33;11.07;;;1.33;;
61025;SDS011;46911;32.650;-16.902;2023-09-08T03:25:36;9.57;;;1.80;;
61025;SDS011;46911;32.650;-16.902;2023-09-08T03:27:40;13.02;;;1.17;;
61025;SDS011;46911;32.650;-16.902;2023-09-08T03:29:41;7.75;;;1.13;;
61025;SDS011;46911;32.650;-16.902;2023-09-08T03:31:42;8.13;;;1.40;;
61025;SDS011;46911;32.650;-16.902;2023-09-08T03:33:45;18.95;;;1.20;;
61025;SDS011;46911;32.650;-16.902;2023-09-08T03:35:46;7.47;;;1.15;;
61025;SDS011;46911;32.650;-16.902;2023-09-08T03:37:52;15.45;;;1.58;;
61025;SDS011;46911;32.650;-16.902;2023-09-08T03:39:53;10.70;;;1.52;;
61025;SDS011;46911;32.650;-16.902;2023-09-08T03:41:57;6.68;;;1.33;;
61025;SDS011;46911;32.650;-16.902;2023-09-08T03:44:01;10.57;;;1.10;;
61025;SDS011;46911;32.650;-16.902;2023-09-08T03:46:02;15.18;;;1.00;;
61025;SDS011;46911;32.650;-16.902;2023-09-08T03:48:03;11.20;;;1.45;;
61025;SDS011;46911;32.650;-16.902;2023-09-08T03:50:07;4.78;;;0.93;;
61025;SDS011;46911;32.650;-16.902;2023-09-08T03:52:10;9.27;;;1.30;;
61025;SDS011;46911;32.650;-16.902;2023-09-08T03:54:12;6.47;;;1.08;;
61025;SDS011;46911;32.650;-16.902;2023-09-08T03:56:15;6.47;;;1.13;;
61025;SDS011;46911;32.650;-16.902;2023-09-08T03:58:16;9.23;;;1.08;;
61025;SDS011;46911;32.650;-16.902;2023-09-08T04:00:20;6.97;;;1.27;;
61025;SDS011;46911;32.650;-16.902;2023-09-08T04:02:23;7.85;;;1.30;;
61025;SDS011;46911;32.650;-16.902;2023-09-08T04:04:23;12.77;;;1.38;;
61025;SDS011;46911;32.650;-16.902;2023-09-08T04:06:27;11.40;;;1.23;;
61025;SDS011;46911;32.650;-16.902;2023-09-08T04:08:30;7.57;;;1.40;;
61025;SDS011;46911;32.650;-16.902;2023-09-08T04:10:33;6.93;;;1.13;;
61025;SDS011;46911;32.650;-16.902;2023-09-08T04:12:34;16.17;;;1.50;;
61025;SDS011;46911;32.650;-16.902;2023-09-08T04:14:35;8.90;;;1.15;;
61025;SDS011;46911;32.650;-16.902;2023-09-08T04:16:38;9.18;;;0.93;;
61025;SDS011;46911;32.650;-16.902;2023-09-08T04:18:42;13.32;;;1.48;;
61025;SDS011;46911;32.650;-16.902;2023-09-08T04:20:45;6.57;;;1.10;;
61025;SDS011;46911;32.650;-16.902;2023-09-08T04:22:46;13.23;;;1.67;;
61025;SDS011;46911;32.650;-16.902;2023-09-08T04:24:50;14.88;;;2.05;;
61025;SDS011;46911;32.650;-16.902;2023-09-08T04:26:53;9.05;;;1.50;;
61025;SDS011;46911;32.650;-16.902;2023-09-08T04:28:54;8.43;;;1.25;;
61025;SDS011;46911;32.650;-16.902;2023-09-08T04:30:58;19.00;;;1.60;;
61025;SDS011;46911;32.650;-16.902;2023-09-08T04:33:01;13.13;;;1.20;;
61025;SDS011;46911;32.650;-16.902;2023-09-08T04:35:02;5.78;;;1.08;;
61025;SDS011;46911;32.650;-16.902;2023-09-08T04:37:04;8.82;;;1.40;;
61025;SDS011;46911;32.650;-16.902;2023-09-08T04:39:05;9.73;;;0.90;;
61025;SDS011;46911;32.650;-16.902;2023-09-08T04:41:13;9.93;;;1.20;;
61025;SDS011;46911;32.650;-16.902;2023-09-08T04:43:19;9.73;;;1.17;;
61025;SDS011;46911;32.650;-16.902;2023-09-08T04:45:20;12.10;;;1.33;;
61025;SDS011;46911;32.650;-16.902;2023-09-08T04:47:24;10.13;;;1.38;;
61025;SDS011;46911;32.650;-16.902;2023-09-08T04:49:28;8.35;;;1.30;;
61025;SDS011;46911;32.650;-16.902;2023-09-08T04:51:29;8.52;;;2.00;;
61025;SDS011;46911;32.650;-16.902;2023-09-08T04:53:31;11.95;;;1.65;;
61025;SDS011;46911;32.650;-16.902;2023-09-08T04:55:37;9.50;;;1.23;;
61025;SDS011;46911;32.650;-16.902;2023-09-08T04:57:41;12.73;;;1.50;;
61025;SDS011;46911;32.650;-16.902;2023-09-08T04:59:42;12.02;;;1.55;;
61025;SDS011;46911;32.650;-16.902;2023-09-08T05:01:43;16.15;;;1.83;;
61025;SDS011;46911;32.650;-16.902;2023-09-08T05:03:44;14.65;;;1.63;;
61025;SDS011;46911;32.650;-16.902;2023-09-08T05:05:48;19.52;;;1.55;;
61025;SDS011;46911;32.650;-16.902;2023-09-08T05:07:49;13.73;;;1.40;;
61025;SDS011;46911;32.650;-16.902;2023-09-08T05:09:56;9.13;;;1.77;;
61025;SDS011;46911;32.650;-16.902;2023-09-08T05:11:58;7.65;;;1.38;;
61025;SDS011;46911;32.650;-16.902;2023-09-08T05:14:00;13.98;;;1.70;;
61025;SDS011;46911;32.650;-16.902;2023-09-08T05:16:01;11.52;;;1.38;;
61025;SDS011;46911;32.650;-16.902;2023-09-08T05:18:16;13.05;;;1.65;;
61025;SDS011;46911;32.650;-16.902;2023-09-08T05:20:22;6.15;;;1.30;;
61025;SDS011;46911;32.650;-16.902;2023-09-08T05:22:30;13.52;;;1.50;;
61025;SDS011;46911;32.650;-16.902;2023-09-08T05:24:34;11.30;;;1.10;;
61025;SDS011;46911;32.650;-16.902;2023-09-08T05:26:37;10.07;;;1.45;;
61025;SDS011;46911;32.650;-16.902;2023-09-08T05:28:41;15.60;;;1.77;;
61025;SDS011;46911;32.650;-16.902;2023-09-08T05:30:43;7.97;;;1.50;;
61025;SDS011;46911;32.650;-16.902;2023-09-08T05:32:44;18.73;;;2.83;;
61025;SDS011;46911;32.650;-16.902;2023-09-08T05:34:45;11.18;;;1.48;;
61025;SDS011;46911;32.650;-16.902;2023-09-08T05:36:46;10.50;;;1.60;;
61025;SDS011;46911;32.650;-16.902;2023-09-08T05:38:50;14.80;;;1.63;;
61025;SDS011;46911;32.650;-16.902;2023-09-08T05:40:54;14.65;;;1.45;;
61025;SDS011;46911;32.650;-16.902;2023-09-08T05:42:55;12.98;;;1.50;;
61025;SDS011;46911;32.650;-16.902;2023-09-08T05:44:56;12.30;;;2.45;;
61025;SDS011;46911;32.650;-16.902;2023-09-08T05:47:00;13.88;;;2.17;;
61025;SDS011;46911;32.650;-16.902;2023-09-08T05:49:02;8.82;;;1.60;;
61025;SDS011;46911;32.650;-16.902;2023-09-08T05:51:04;16.73;;;1.92;;
61025;SDS011;46911;32.650;-16.902;2023-09-08T05:53:08;7.22;;;1.40;;
61025;SDS011;46911;32.650;-16.902;2023-09-08T05:55:13;18.42;;;2.10;;
61025;SDS011;46911;32.650;-16.902;2023-09-08T05:57:17;15.80;;;2.03;;
61025;SDS011;46911;32.650;-16.902;2023-09-08T05:59:18;11.70;;;2.03;;
61025;SDS011;46911;32.650;-16.902;2023-09-08T06:01:19;16.08;;;1.58;;
61025;SDS011;46911;32.650;-16.902;2023-09-08T06:03:20;14.27;;;1.92;;
61025;SDS011;46911;32.650;-16.902;2023-09-08T06:05:23;18.50;;;2.00;;
61025;SDS011;46911;32.650;-16.902;2023-09-08T06:07:24;14.02;;;1.92;;
61025;SDS011;46911;32.650;-16.902;2023-09-08T06:09:25;15.60;;;1.80;;
61025;SDS011;46911;32.650;-16.902;2023-09-08T06:11:27;14.13;;;1.90;;
61025;SDS011;46911;32.650;-16.902;2023-09-08T06:13:28;14.27;;;2.20;;
61025;SDS011;46911;32.650;-16.902;2023-09-08T06:15:29;13.23;;;2.35;;
61025;SDS011;46911;32.650;-16.902;2023-09-08T06:17:34;11.15;;;2.03;;
61025;SDS011;46911;32.650;-16.902;2023-09-08T06:19:34;8.73;;;1.48;;
61025;SDS011;46911;32.650;-16.902;2023-09-08T06:21:43;14.05;;;2.53;;
61025;SDS011;46911;32.650;-16.902;2023-09-08T06:23:45;20.15;;;2.67;;
61025;SDS011;46911;32.650;-16.902;2023-09-08T06:25:55;17.55;;;2.35;;
61025;SDS011;46911;32.650;-16.902;2023-09-08T06:27:59;20.20;;;2.35;;
61025;SDS011;46911;32.650;-16.902;2023-09-08T06:30:01;11.32;;;2.53;;
61025;SDS011;46911;32.650;-16.902;2023-09-08T06:32:07;8.82;;;1.70;;
61025;SDS011;46911;32.650;-16.902;2023-09-08T06:34:10;11.38;;;2.28;;
61025;SDS011;46911;32.650;-16.902;2023-09-08T06:36:11;13.27;;;2.28;;
61025;SDS011;46911;32.650;-16.902;2023-09-08T06:38:14;14.77;;;2.20;;
61025;SDS011;46911;32.650;-16.902;2023-09-08T06:40:20;14.13;;;2.92;;
61025;SDS011;46911;32.650;-16.902;2023-09-08T06:42:21;10.85;;;2.55;;
61025;SDS011;46911;32.650;-16.902;2023-09-08T06:44:30;10.90;;;2.50;;
61025;SDS011;46911;32.650;-16.902;2023-09-08T06:46:33;15.15;;;2.85;;
61025;SDS011;46911;32.650;-16.902;2023-09-08T06:48:34;14.73;;;3.38;;
61025;SDS011;46911;32.650;-16.902;2023-09-08T06:50:36;13.82;;;2.53;;
61025;SDS011;46911;32.650;-16.902;2023-09-08T06:52:37;19.40;;;3.30;;
61025;SDS011;46911;32.650;-16.902;2023-09-08T06:54:43;13.45;;;2.80;;
61025;SDS011;46911;32.650;-16.902;2023-09-08T06:56:49;13.85;;;2.33;;
61025;SDS011;46911;32.650;-16.902;2023-09-08T06:58:50;19.13;;;3.25;;
61025;SDS011;46911;32.650;-16.902;2023-09-08T07:00:56;16.17;;;2.33;;
61025;SDS011;46911;32.650;-16.902;2023-09-08T07:03:02;15.30;;;3.17;;
61025;SDS011;46911;32.650;-16.902;2023-09-08T07:05:03;14.60;;;3.00;;
61025;SDS011;46911;32.650;-16.902;2023-09-08T07:07:11;12.27;;;3.70;;
61025;SDS011;46911;32.650;-16.902;2023-09-08T07:09:12;18.73;;;3.50;;
61025;SDS011;46911;32.650;-16.902;2023-09-08T07:11:14;18.60;;;3.15;;
61025;SDS011;46911;32.650;-16.902;2023-09-08T07:13:14;18.00;;;3.58;;
61025;SDS011;46911;32.650;-16.902;2023-09-08T07:15:15;18.77;;;3.65;;
61025;SDS011;46911;32.650;-16.902;2023-09-08T07:17:17;15.98;;;3.13;;
61025;SDS011;46911;32.650;-16.902;2023-09-08T07:19:18;18.35;;;3.00;;
61025;SDS011;46911;32.650;-16.902;2023-09-08T07:21:21;25.20;;;4.45;;
61025;SDS011;46911;32.650;-16.902;2023-09-08T07:23:22;13.90;;;2.83;;
61025;SDS011;46911;32.650;-16.902;2023-09-08T07:25:29;21.27;;;4.78;;
61025;SDS011;46911;32.650;-16.902;2023-09-08T07:27:35;17.75;;;3.72;;
61025;SDS011;46911;32.650;-16.902;2023-09-08T07:29:38;15.25;;;3.58;;
61025;SDS011;46911;32.650;-16.902;2023-09-08T07:31:42;14.30;;;3.70;;
61025;SDS011;46911;32.650;-16.902;2023-09-08T07:33:45;20.88;;;3.55;;
61025;SDS011;46911;32.650;-16.902;2023-09-08T07:35:46;13.77;;;4.03;;
61025;SDS011;46911;32.650;-16.902;2023-09-08T07:37:47;19.30;;;3.55;;
61025;SDS011;46911;32.650;-16.902;2023-09-08T07:39:48;19.83;;;3.83;;
61025;SDS011;46911;32.650;-16.902;2023-09-08T07:41:50;9.00;;;2.88;;
61025;SDS011;46911;32.650;-16.902;2023-09-08T07:43:55;10.25;;;2.80;;
61025;SDS011;46911;32.650;-16.902;2023-09-08T07:45:58;15.95;;;3.70;;
61025;SDS011;46911;32.650;-16.902;2023-09-08T07:47:59;32.67;;;3.95;;
61025;SDS011;46911;32.650;-16.902;2023-09-08T07:50:16;14.45;;;2.80;;
61025;SDS011;46911;32.650;-16.902;2023-09-08T07:52:21;17.13;;;3.72;;
61025;SDS011;46911;32.650;-16.902;2023-09-08T07:54:24;17.38;;;3.53;;
61025;SDS011;46911;32.650;-16.902;2023-09-08T07:56:27;23.58;;;4.22;;
61025;SDS011;46911;32.650;-16.902;2023-09-08T07:58:28;16.15;;;3.47;;
61025;SDS011;46911;32.650;-16.902;2023-09-08T08:00:30;22.45;;;3.72;;
61025;SDS011;46911;32.650;-16.902;2023-09-08T08:02:31;12.98;;;4.32;;
61025;SDS011;46911;32.650;-16.902;2023-09-08T08:04:33;21.02;;;3.50;;
61025;SDS011;46911;32.650;-16.902;2023-09-08T08:06:37;24.33;;;5.22;;
61025;SDS011;46911;32.650;-16.902;2023-09-08T08:08:41;22.60;;;3.38;;
61025;SDS011;46911;32.650;-16.902;2023-09-08T08:10:41;13.23;;;3.42;;
61025;SDS011;46911;32.650;-16.902;2023-09-08T08:12:43;10.85;;;3.38;;
61025;SDS011;46911;32.650;-16.902;2023-09-08T08:14:47;23.33;;;3.28;;
61025;SDS011;46911;32.650;-16.902;2023-09-08T08:16:50;15.77;;;3.08;;
61025;SDS011;46911;32.650;-16.902;2023-09-08T08:18:51;15.38;;;2.95;;
61025;SDS011;46911;32.650;-16.902;2023-09-08T08:20:52;9.88;;;3.13;;
61025;SDS011;46911;32.650;-16.902;2023-09-08T08:22:53;16.13;;;2.72;;
61025;SDS011;46911;32.650;-16.902;2023-09-08T08:24:56;16.33;;;3.35;;
61025;SDS011;46911;32.650;-16.902;2023-09-08T08:26:59;17.08;;;3.45;;
61025;SDS011;46911;32.650;-16.902;2023-09-08T08:29:03;12.40;;;2.55;;
61025;SDS011;46911;32.650;-16.902;2023-09-08T08:31:04;16.58;;;2.90;;
61025;SDS011;46911;32.650;-16.902;2023-09-08T08:33:05;21.80;;;3.25;;
61025;SDS011;46911;32.650;-16.902;2023-09-08T08:35:08;20.27;;;3.28;;
61025;SDS011;46911;32.650;-16.902;2023-09-08T08:37:10;8.45;;;2.35;;
61025;SDS011;46911;32.650;-16.902;2023-09-08T08:39:11;20.65;;;3.05;;
61025;SDS011;46911;32.650;-16.902;2023-09-08T08:41:12;19.85;;;3.05;;
61025;SDS011;46911;32.650;-16.902;2023-09-08T08:43:13;12.63;;;2.55;;
61025;SDS011;46911;32.650;-16.902;2023-09-08T08:45:16;8.68;;;2.47;;
61025;SDS011;46911;32.650;-16.902;2023-09-08T08:47:24;13.13;;;2.28;;
61025;SDS011;46911;32.650;-16.902;2023-09-08T08:49:30;16.90;;;2.28;;
61025;SDS011;46911;32.650;-16.902;2023-09-08T08:51:35;18.58;;;2.70;;
61025;SDS011;46911;32.650;-16.902;2023-09-08T08:53:37;14.55;;;2.15;;
61025;SDS011;46911;32.650;-16.902;2023-09-08T08:55:39;25.05;;;3.20;;
61025;SDS011;46911;32.650;-16.902;2023-09-08T08:57:41;13.13;;;3.00;;
61025;SDS011;46911;32.650;-16.902;2023-09-08T08:59:46;18.15;;;2.75;;
61025;SDS011;46911;32.650;-16.902;2023-09-08T09:01:54;19.77;;;2.55;;
61025;SDS011;46911;32.650;-16.902;2023-09-08T09:03:59;12.93;;;2.08;;
61025;SDS011;46911;32.650;-16.902;2023-09-08T09:06:00;17.08;;;3.10;;
61025;SDS011;46911;32.650;-16.902;2023-09-08T09:08:02;23.08;;;2.65;;
61025;SDS011;46911;32.650;-16.902;2023-09-08T09:10:04;18.52;;;2.70;;
61025;SDS011;46911;32.650;-16.902;2023-09-08T09:12:07;21.27;;;2.83;;
61025;SDS011;46911;32.650;-16.902;2023-09-08T09:14:08;14.50;;;2.85;;
61025;SDS011;46911;32.650;-16.902;2023-09-08T09:16:09;21.98;;;3.42;;
61025;SDS011;46911;32.650;-16.902;2023-09-08T09:18:12;18.70;;;2.90;;
61025;SDS011;46911;32.650;-16.902;2023-09-08T09:20:18;20.02;;;2.60;;
61025;SDS011;46911;32.650;-16.902;2023-09-08T09:22:20;23.00;;;3.67;;
61025;SDS011;46911;32.650;-16.902;2023-09-08T09:24:31;23.90;;;3.75;;
61025;SDS011;46911;32.650;-16.902;2023-09-08T09:26:38;11.52;;;3.15;;
61025;SDS011;46911;32.650;-16.902;2023-09-08T09:28:48;20.33;;;3.28;;
61025;SDS011;46911;32.650;-16.902;2023-09-08T09:30:52;21.33;;;2.75;;
61025;SDS011;46911;32.650;-16.902;2023-09-08T09:33:03;20.83;;;3.33;;
61025;SDS011;46911;32.650;-16.902;2023-09-08T09:35:08;25.15;;;4.13;;
61025;SDS011;46911;32.650;-16.902;2023-09-08T09:37:09;19.27;;;3.35;;
61025;SDS011;46911;32.650;-16.902;2023-09-08T09:39:10;17.80;;;2.63;;
61025;SDS011;46911;32.650;-16.902;2023-09-08T09:41:12;17.48;;;3.33;;
61025;SDS011;46911;32.650;-16.902;2023-09-08T09:43:13;19.70;;;3.60;;
61025;SDS011;46911;32.650;-16.902;2023-09-08T09:45:20;19.10;;;3.20;;
61025;SDS011;46911;32.650;-16.902;2023-09-08T09:47:27;26.45;;;3.60;;
61025;SDS011;46911;32.650;-16.902;2023-09-08T09:49:29;27.38;;;3.50;;
61025;SDS011;46911;32.650;-16.902;2023-09-08T09:51:39;21.98;;;2.92;;
61025;SDS011;46911;32.650;-16.902;2023-09-08T09:53:43;24.52;;;3.50;;
61025;SDS011;46911;32.650;-16.902;2023-09-08T09:55:50;20.48;;;2.85;;
61025;SDS011;46911;32.650;-16.902;2023-09-08T09:57:57;18.63;;;3.72;;
61025;SDS011;46911;32.650;-16.902;2023-09-08T10:00:04;23.92;;;3.10;;
61025;SDS011;46911;32.650;-16.902;2023-09-08T10:02:14;16.00;;;3.15;;
61025;SDS011;46911;32.650;-16.902;2023-09-08T10:04:15;27.33;;;3.92;;
61025;SDS011;46911;32.650;-16.902;2023-09-08T10:06:17;13.23;;;2.92;;
61025;SDS011;46911;32.650;-16.902;2023-09-08T10:08:20;15.32;;;2.83;;
61025;SDS011;46911;32.650;-16.902;2023-09-08T10:10:24;16.60;;;2.53;;
61025;SDS011;46911;32.650;-16.902;2023-09-08T10:12:34;16.70;;;2.80;;
61025;SDS011;46911;32.650;-16.902;2023-09-08T10:16:46;13.15;;;2.20;;
61025;SDS011;46911;32.650;-16.902;2023-09-08T10:18:52;16.27;;;3.10;;
61025;SDS011;46911;32.650;-16.902;2023-09-08T10:20:56;15.45;;;2.33;;
61025;SDS011;46911;32.650;-16.902;2023-09-08T10:23:47;18.58;;;3.22;;
61025;SDS011;46911;32.650;-16.902;2023-09-08T10:25:27;15.80;;;2.83;;
61025;SDS011;46911;32.650;-16.902;2023-09-08T10:27:33;19.33;;;2.40;;
61025;SDS011;46911;32.650;-16.902;2023-09-08T10:29:36;13.68;;;2.92;;
61025;SDS011;46911;32.650;-16.902;2023-09-08T10:31:38;20.60;;;2.90;;
61025;SDS011;46911;32.650;-16.902;2023-09-08T10:33:40;18.85;;;3.00;;
61025;SDS011;46911;32.650;-16.902;2023-09-08T10:35:42;20.00;;;3.72;;
61025;SDS011;46911;32.650;-16.902;2023-09-08T10:37:44;14.23;;;2.45;;
61025;SDS011;46911;32.650;-16.902;2023-09-08T10:39:45;23.67;;;3.10;;
61025;SDS011;46911;32.650;-16.902;2023-09-08T10:41:51;19.00;;;3.17;;
61025;SDS011;46911;32.650;-16.902;2023-09-08T10:44:18;18.35;;;2.95;;
61025;SDS011;46911;32.650;-16.902;2023-09-08T10:46:23;17.98;;;3.22;;
61025;SDS011;46911;32.650;-16.902;2023-09-08T10:48:27;12.27;;;2.55;;
61025;SDS011;46911;32.650;-16.902;2023-09-08T10:50:40;11.13;;;2.08;;
61025;SDS011;46911;32.650;-16.902;2023-09-08T10:52:46;26.85;;;3.10;;
61025;SDS011;46911;32.650;-16.902;2023-09-08T10:55:10;21.23;;;3.15;;
61025;SDS011;46911;32.650;-16.902;2023-09-08T10:57:16;20.20;;;2.72;;
61025;SDS011;46911;32.650;-16.902;2023-09-08T10:59:22;20.05;;;3.00;;
61025;SDS011;46911;32.650;-16.902;2023-09-08T11:01:31;11.98;;;2.35;;
61025;SDS011;46911;32.650;-16.902;2023-09-08T11:05:37;18.00;;;3.22;;
61025;SDS011;46911;32.650;-16.902;2023-09-08T11:07:39;18.15;;;3.28;;
61025;SDS011;46911;32.650;-16.902;2023-09-08T11:09:43;16.60;;;3.05;;
61025;SDS011;46911;32.650;-16.902;2023-09-08T11:11:46;16.02;;;3.47;;
61025;SDS011;46911;32.650;-16.902;2023-09-08T11:13:47;16.17;;;3.10;;
61025;SDS011;46911;32.650;-16.902;2023-09-08T11:15:55;16.55;;;3.50;;
61025;SDS011;46911;32.650;-16.902;2023-09-08T11:18:04;17.23;;;3.13;;
61025;SDS011;46911;32.650;-16.902;2023-09-08T11:20:05;20.05;;;3.42;;
61025;SDS011;46911;32.650;-16.902;2023-09-08T11:22:11;14.25;;;2.55;;
61025;SDS011;46911;32.650;-16.902;2023-09-08T11:24:15;26.17;;;3.10;;
61025;SDS011;46911;32.650;-16.902;2023-09-08T11:26:18;19.50;;;2.80;;
61025;SDS011;46911;32.650;-16.902;2023-09-08T11:28:22;20.80;;;3.22;;
61025;SDS011;46911;32.650;-16.902;2023-09-08T11:30:25;14.57;;;3.28;;
61025;SDS011;46911;32.650;-16.902;2023-09-08T11:32:31;25.73;;;3.15;;
61025;SDS011;46911;32.650;-16.902;2023-09-08T11:34:34;23.17;;;3.88;;
61025;SDS011;46911;32.650;-16.902;2023-09-08T11:36:35;19.17;;;3.20;;
61025;SDS011;46911;32.650;-16.902;2023-09-08T11:38:36;11.93;;;2.67;;
61025;SDS011;46911;32.650;-16.902;2023-09-08T11:40:41;14.38;;;2.40;;
61025;SDS011;46911;32.650;-16.902;2023-09-08T11:42:43;10.57;;;1.95;;
61025;SDS011;46911;32.650;-16.902;2023-09-08T11:44:44;9.45;;;2.13;;
61025;SDS011;46911;32.650;-16.902;2023-09-08T11:46:48;11.73;;;2.00;;
61025;SDS011;46911;32.650;-16.902;2023-09-08T11:48:49;15.45;;;2.53;;
61025;SDS011;46911;32.650;-16.902;2023-09-08T11:50:53;16.40;;;2.95;;
61025;SDS011;46911;32.650;-16.902;2023-09-08T11:52:57;15.20;;;2.50;;
61025;SDS011;46911;32.650;-16.902;2023-09-08T11:55:02;15.07;;;3.08;;
61025;SDS011;46911;32.650;-16.902;2023-09-08T11:57:06;15.70;;;3.03;;
61025;SDS011;46911;32.650;-16.902;2023-09-08T11:59:12;17.00;;;3.13;;
61025;SDS011;46911;32.650;-16.902;2023-09-08T12:01:19;15.45;;;2.55;;
61025;SDS011;46911;32.650;-16.902;2023-09-08T12:03:21;8.38;;;2.08;;